createdAt,value
2023-05-05T00:02:15.099Z,2.10
2023-05-05T00:05:19.477Z,1.98
2023-05-05T00:08:23.937Z,2.80
2023-05-05T00:11:28.564Z,3.72
2023-05-05T00:14:33.052Z,2.45
2023-05-05T00:17:37.742Z,2.10
2023-05-05T00:20:47.210Z,4.28
2023-05-05T00:23:51.828Z,3.63
2023-05-05T00:26:55.984Z,1.95
2023-05-05T00:30:00.542Z,3.47
2023-05-05T00:33:04.818Z,6.88
2023-05-05T00:36:09.852Z,2.90
2023-05-05T00:39:15.060Z,4.30
2023-05-05T00:42:19.820Z,4.82
2023-05-05T00:45:24.525Z,2.90
2023-05-05T00:48:30.724Z,5.22
2023-05-05T00:51:35.000Z,5.53
2023-05-05T00:54:39.849Z,5.38
2023-05-05T00:57:45.324Z,3.22
2023-05-05T01:00:50.560Z,4.90
2023-05-05T01:03:55.490Z,4.93
2023-05-05T01:07:29.641Z,6.43
2023-05-05T01:11:07.856Z,4.40
2023-05-05T01:14:40.896Z,7.72
2023-05-05T01:18:07.190Z,6.32
2023-05-05T01:21:36.625Z,7.05
2023-05-05T01:25:06.821Z,7.30
2023-05-05T01:28:35.803Z,3.97
2023-05-05T01:31:51.765Z,6.55
2023-05-05T01:35:24.310Z,5.68
2023-05-05T01:38:38.087Z,10.75
2023-05-05T01:41:49.000Z,7.75
2023-05-05T01:44:54.294Z,7.28
2023-05-05T01:48:00.563Z,9.20
2023-05-05T01:51:06.341Z,6.03
2023-05-05T01:54:10.853Z,8.52
2023-05-05T01:57:16.642Z,8.07
2023-05-05T02:00:22.452Z,7.00
2023-05-05T02:03:29.290Z,5.45
2023-05-05T02:06:35.322Z,8.18
2023-05-05T02:09:40.722Z,7.97
2023-05-05T02:12:47.274Z,7.32
2023-05-05T02:15:53.339Z,8.80
2023-05-05T02:19:02.328Z,4.10
2023-05-05T02:22:06.782Z,10.25
2023-05-05T02:25:11.420Z,9.48
2023-05-05T02:28:35.346Z,12.45
2023-05-05T02:31:50.082Z,8.75
2023-05-05T02:34:55.344Z,11.60
2023-05-05T02:38:05.540Z,8.90
2023-05-05T02:41:16.564Z,11.35
2023-05-05T02:44:24.610Z,7.53
2023-05-05T02:47:36.559Z,5.53
2023-05-05T02:50:41.108Z,8.63
2023-05-05T02:53:45.620Z,8.13
2023-05-05T02:56:51.497Z,11.15
2023-05-05T03:00:22.745Z,7.90
2023-05-05T03:04:01.461Z,10.82
2023-05-05T03:07:14.339Z,8.65
2023-05-05T03:10:26.820Z,16.67
2023-05-05T03:13:35.774Z,8.65
2023-05-05T03:16:42.733Z,11.55
2023-05-05T03:19:47.804Z,19.63
2023-05-05T03:22:52.606Z,16.02
2023-05-05T03:25:56.982Z,15.88
2023-05-05T03:29:01.830Z,15.57
2023-05-05T03:32:07.110Z,13.23
2023-05-05T03:35:11.879Z,16.27
2023-05-05T03:38:16.187Z,9.07
2023-05-05T03:41:22.274Z,15.68
2023-05-05T03:44:28.135Z,14.90
2023-05-05T03:47:32.767Z,11.57
2023-05-05T03:50:37.687Z,22.27
2023-05-05T03:53:42.090Z,18.38
2023-05-05T03:56:46.152Z,14.98
2023-05-05T03:59:50.518Z,18.98
2023-05-05T04:02:55.193Z,13.95
2023-05-05T04:06:00.438Z,15.63
2023-05-05T04:09:05.743Z,17.83
2023-05-05T04:12:13.255Z,16.00
2023-05-05T04:15:17.725Z,16.60
2023-05-05T04:18:22.094Z,15.75
2023-05-05T04:21:26.593Z,22.95
2023-05-05T04:24:31.023Z,17.05
2023-05-05T04:27:35.607Z,18.20
2023-05-05T04:30:40.557Z,14.32
2023-05-05T04:33:44.597Z,12.65
2023-05-05T04:36:49.278Z,16.33
2023-05-05T04:39:53.845Z,16.30
2023-05-05T04:42:58.361Z,22.02
2023-05-05T04:46:02.823Z,15.05
2023-05-05T04:49:07.079Z,15.73
2023-05-05T04:52:15.976Z,19.67
2023-05-05T04:55:20.290Z,18.58
2023-05-05T04:58:24.501Z,17.10
2023-05-05T05:01:29.419Z,17.50
2023-05-05T05:04:33.863Z,19.77
2023-05-05T05:07:38.340Z,17.27
2023-05-05T05:13:48.107Z,20.13
2023-05-05T05:16:52.644Z,21.00
2023-05-05T05:19:59.223Z,29.00
2023-05-05T05:23:04.555Z,16.02
2023-05-05T05:26:09.514Z,16.35
2023-05-05T05:29:14.255Z,18.38
2023-05-05T05:32:18.877Z,12.07
2023-05-05T05:35:23.432Z,12.52
2023-05-05T05:38:27.953Z,16.67
2023-05-05T05:41:32.717Z,13.32
2023-05-05T05:44:36.985Z,17.25
2023-05-05T05:47:41.191Z,15.20
2023-05-05T05:50:45.969Z,13.82
2023-05-05T05:53:51.857Z,22.45
2023-05-05T05:56:56.250Z,20.05
2023-05-05T06:00:01.934Z,18.90
2023-05-05T06:03:07.501Z,12.52
2023-05-05T06:06:11.935Z,25.15
2023-05-05T06:09:16.157Z,20.20
2023-05-05T06:12:20.992Z,15.15
2023-05-05T06:15:25.919Z,18.15
2023-05-05T06:18:30.385Z,14.43
2023-05-05T06:21:34.474Z,30.17
2023-05-05T06:27:42.888Z,15.70
2023-05-05T06:30:46.952Z,11.88
2023-05-05T06:33:51.219Z,16.65
2023-05-05T06:37:47.124Z,21.52
2023-05-05T06:40:58.693Z,13.48
2023-05-05T06:44:03.789Z,17.88
2023-05-05T06:47:08.787Z,15.98
2023-05-05T06:50:13.600Z,10.95
2023-05-05T06:53:19.941Z,11.95
2023-05-05T06:56:28.398Z,13.60
2023-05-05T06:59:32.782Z,15.43
2023-05-05T07:02:37.395Z,14.88
2023-05-05T07:05:42.159Z,12.80
2023-05-05T07:08:47.186Z,16.98
2023-05-05T07:11:51.782Z,14.95
2023-05-05T07:14:56.427Z,12.05
2023-05-05T07:18:00.740Z,11.65
2023-05-05T07:21:08.078Z,15.48
2023-05-05T07:24:13.218Z,13.30
2023-05-05T07:27:17.662Z,12.40
2023-05-05T07:30:22.219Z,12.68
2023-05-05T07:33:27.650Z,11.73
2023-05-05T07:36:32.298Z,10.55
2023-05-05T07:39:36.841Z,9.70
2023-05-05T07:42:41.520Z,11.60
2023-05-05T07:45:46.597Z,12.25
2023-05-05T07:48:51.239Z,13.52
2023-05-05T07:51:56.065Z,10.65
2023-05-05T07:55:00.496Z,9.57
2023-05-05T07:58:11.187Z,13.85
2023-05-05T08:01:15.986Z,13.05
2023-05-05T08:04:20.516Z,12.25
2023-05-05T08:07:24.915Z,12.18
2023-05-05T08:10:29.344Z,9.43
2023-05-05T08:13:34.549Z,14.60
2023-05-05T08:16:39.156Z,11.20
2023-05-05T08:19:43.313Z,11.23
2023-05-05T08:25:52.518Z,11.10
2023-05-05T08:29:00.738Z,8.98
2023-05-05T08:32:06.286Z,12.23
2023-05-05T08:35:11.054Z,10.32
2023-05-05T08:38:15.940Z,12.48
2023-05-05T08:41:20.320Z,13.85
2023-05-05T08:44:26.848Z,10.52
2023-05-05T08:47:32.240Z,7.40
2023-05-05T08:50:40.008Z,12.00
2023-05-05T08:54:06.970Z,13.15
2023-05-05T08:57:13.949Z,8.90
2023-05-05T09:00:21.115Z,13.65
2023-05-05T09:03:27.697Z,19.05
2023-05-05T09:06:33.898Z,13.35
2023-05-05T09:09:38.713Z,13.95
2023-05-05T09:12:43.436Z,12.38
2023-05-05T09:15:47.880Z,8.18
2023-05-05T09:19:04.699Z,16.45
2023-05-05T09:22:09.062Z,14.73
2023-05-05T09:25:16.569Z,8.02
2023-05-05T09:28:21.109Z,10.07
2023-05-05T09:31:28.117Z,9.90
2023-05-05T09:34:35.211Z,12.75
2023-05-05T09:37:40.140Z,12.48
2023-05-05T09:40:47.714Z,10.88
2023-05-05T09:43:52.503Z,12.63
2023-05-05T09:46:58.223Z,12.07
2023-05-05T09:50:04.162Z,11.85
2023-05-05T09:53:10.002Z,11.73
2023-05-05T09:56:14.408Z,9.23
2023-05-05T09:59:19.390Z,7.20
2023-05-05T10:02:35.234Z,9.50
2023-05-05T10:05:48.973Z,10.20
2023-05-05T10:09:01.974Z,9.65
2023-05-05T10:12:06.989Z,12.25
2023-05-05T10:15:12.750Z,13.23
2023-05-05T10:18:22.070Z,11.50
2023-05-05T10:21:27.976Z,16.35
2023-05-05T10:24:42.897Z,11.60
2023-05-05T10:27:59.098Z,8.25
2023-05-05T10:31:23.930Z,6.93
2023-05-05T10:34:40.701Z,12.32
2023-05-05T10:37:49.028Z,11.15
2023-05-05T10:40:55.029Z,11.15
2023-05-05T10:44:01.322Z,8.35
2023-05-05T10:47:08.092Z,11.00
2023-05-05T10:50:33.230Z,9.68
2023-05-05T10:53:55.727Z,11.27
2023-05-05T10:57:02.686Z,13.48
2023-05-05T11:00:15.020Z,8.73
2023-05-05T11:03:21.996Z,5.45
2023-05-05T11:06:26.291Z,7.38
2023-05-05T11:09:31.036Z,11.80
2023-05-05T11:12:59.312Z,13.52
2023-05-05T11:16:05.342Z,5.40
2023-05-05T11:19:48.962Z,7.72
2023-05-05T11:23:05.476Z,8.80
2023-05-05T11:26:10.355Z,8.02
2023-05-05T11:29:14.703Z,11.40
2023-05-05T11:32:19.983Z,19.75
2023-05-05T11:36:01.288Z,10.00
2023-05-05T11:39:36.560Z,10.90
2023-05-05T11:42:40.773Z,16.65
2023-05-05T11:45:45.651Z,11.57
2023-05-05T11:48:52.935Z,10.75
2023-05-05T11:52:03.568Z,10.00
2023-05-05T11:55:08.466Z,11.38
2023-05-05T11:58:20.169Z,6.15
2023-05-05T12:01:24.714Z,17.77
2023-05-05T12:04:30.761Z,12.45
2023-05-05T12:07:35.142Z,13.00
2023-05-05T12:10:39.581Z,10.65
2023-05-05T12:13:44.432Z,7.93
2023-05-05T12:16:58.707Z,7.95
2023-05-05T12:20:05.837Z,8.20
2023-05-05T12:23:12.372Z,16.20
2023-05-05T12:26:31.037Z,7.88
2023-05-05T12:29:35.595Z,10.68
2023-05-05T12:32:40.099Z,12.40
2023-05-05T12:35:44.736Z,11.15
2023-05-05T12:38:49.862Z,10.00
2023-05-05T12:42:05.366Z,9.23
2023-05-05T12:45:17.791Z,16.52
2023-05-05T12:48:23.183Z,16.25
2023-05-05T12:51:28.155Z,10.63
2023-05-05T12:54:32.748Z,13.40
2023-05-05T12:57:37.692Z,9.40
2023-05-05T13:00:41.850Z,10.43
2023-05-05T13:03:46.901Z,8.50
2023-05-05T13:07:15.665Z,13.88
2023-05-05T13:10:19.768Z,8.07
2023-05-05T13:13:24.491Z,7.70
2023-05-05T13:16:28.848Z,10.20
2023-05-05T13:19:35.660Z,10.45
2023-05-05T13:22:40.337Z,9.07
2023-05-05T13:25:44.725Z,9.27
2023-05-05T13:28:48.980Z,7.82
2023-05-05T13:31:53.534Z,6.85
2023-05-05T13:34:58.180Z,9.93
2023-05-05T13:38:02.572Z,10.82
2023-05-05T13:41:07.152Z,12.00
2023-05-05T13:44:13.634Z,11.32
2023-05-05T13:47:18.041Z,9.52
2023-05-05T13:50:23.897Z,7.25
2023-05-05T13:53:28.095Z,7.80
2023-05-05T13:56:33.117Z,8.13
2023-05-05T13:59:37.423Z,34.42
2023-05-05T14:05:46.411Z,11.07
2023-05-05T14:08:53.608Z,10.80
2023-05-05T14:11:58.924Z,6.68
2023-05-05T14:15:03.935Z,9.18
2023-05-05T14:18:08.901Z,7.82
2023-05-05T14:21:13.314Z,11.25
2023-05-05T14:24:17.475Z,14.55
2023-05-05T14:27:21.682Z,11.43
2023-05-05T14:30:26.061Z,10.65
2023-05-05T14:33:30.767Z,12.57
2023-05-05T14:36:35.175Z,14.00
2023-05-05T14:39:39.439Z,10.60
2023-05-05T14:42:44.036Z,14.73
2023-05-05T14:45:48.598Z,9.20
2023-05-05T14:48:53.375Z,10.77
2023-05-05T14:51:57.622Z,13.25
2023-05-05T14:55:01.775Z,14.50
2023-05-05T14:58:05.921Z,10.70
2023-05-05T15:01:10.468Z,9.70
2023-05-05T15:04:15.129Z,10.63
2023-05-05T15:07:21.328Z,12.50
2023-05-05T15:10:25.940Z,7.00
2023-05-05T15:13:31.206Z,11.82
2023-05-05T15:16:35.556Z,11.30
2023-05-05T15:19:40.117Z,7.07
2023-05-05T15:22:44.171Z,13.30
2023-05-05T15:28:52.771Z,9.88
2023-05-05T15:31:57.084Z,13.10
2023-05-05T15:35:01.701Z,12.77
2023-05-05T15:38:06.296Z,7.97
2023-05-05T15:41:10.912Z,12.10
2023-05-05T15:44:14.984Z,10.65
2023-05-05T15:47:19.467Z,9.75
2023-05-05T15:50:23.973Z,10.77
2023-05-05T15:53:28.433Z,6.57
2023-05-05T15:56:33.761Z,15.70
2023-05-05T15:59:38.305Z,12.52
2023-05-05T16:02:42.623Z,12.25
2023-05-05T16:05:47.448Z,6.72
2023-05-05T16:08:52.077Z,14.77
2023-05-05T16:11:57.043Z,8.27
2023-05-05T16:15:01.863Z,10.73
2023-05-05T16:18:06.027Z,11.55
2023-05-05T16:21:10.847Z,10.25
2023-05-05T16:24:16.586Z,11.35
2023-05-05T16:27:21.183Z,11.65
2023-05-05T16:30:25.997Z,8.32
2023-05-05T16:33:30.647Z,13.63
2023-05-05T16:36:34.869Z,11.93
2023-05-05T16:39:40.276Z,10.85
2023-05-05T16:42:44.769Z,13.05
2023-05-05T16:45:49.382Z,12.60
2023-05-05T16:48:54.513Z,9.43
2023-05-05T16:51:58.565Z,10.02
2023-05-05T16:55:04.778Z,7.88
2023-05-05T16:58:09.203Z,9.73
2023-05-05T17:01:13.648Z,9.60
2023-05-05T17:04:17.905Z,6.35
2023-05-05T17:07:22.146Z,10.43
2023-05-05T17:10:27.074Z,10.93
2023-05-05T17:13:31.433Z,16.70
2023-05-05T17:16:35.974Z,7.95
2023-05-05T17:19:42.566Z,11.85
2023-05-05T17:22:47.232Z,11.88
2023-05-05T17:28:55.786Z,14.52
2023-05-05T17:31:59.962Z,11.25
2023-05-05T17:35:05.324Z,7.97
2023-05-05T17:38:09.803Z,16.20
2023-05-05T17:41:14.387Z,7.78
2023-05-05T17:47:24.144Z,13.77
2023-05-05T17:50:28.449Z,16.23
2023-05-05T17:53:33.120Z,12.00
2023-05-05T17:56:38.071Z,12.07
2023-05-05T17:59:42.269Z,5.75
2023-05-05T18:02:49.935Z,14.55
2023-05-05T18:05:54.500Z,17.13
2023-05-05T18:08:59.062Z,12.43
2023-05-05T18:12:03.681Z,13.07
2023-05-05T18:15:09.203Z,10.80
2023-05-05T18:18:13.944Z,11.38
2023-05-05T18:21:18.263Z,17.67
2023-05-05T18:24:23.208Z,13.07
2023-05-05T18:27:28.632Z,12.52
2023-05-05T18:30:33.751Z,14.88
2023-05-05T18:33:38.162Z,10.73
2023-05-05T18:36:42.419Z,18.67
2023-05-05T18:39:47.676Z,12.43
2023-05-05T18:42:52.029Z,12.77
2023-05-05T18:45:56.602Z,15.65
2023-05-05T18:49:00.941Z,19.08
2023-05-05T18:52:05.871Z,11.70
2023-05-05T18:58:16.738Z,11.80
2023-05-05T19:01:21.356Z,13.63
2023-05-05T19:04:31.359Z,17.00
2023-05-05T19:07:36.745Z,14.25
2023-05-05T19:10:41.813Z,13.63
2023-05-05T19:13:46.856Z,17.13
2023-05-05T19:16:52.875Z,14.95
2023-05-05T19:19:57.420Z,13.98
2023-05-05T19:23:05.073Z,15.60
2023-05-05T19:26:10.300Z,17.92
2023-05-05T19:29:16.055Z,24.25
2023-05-05T19:32:21.241Z,14.93
2023-05-05T19:35:28.090Z,14.90
2023-05-05T19:38:33.012Z,13.00
2023-05-05T19:41:37.574Z,14.65
2023-05-05T19:44:42.613Z,22.80
2023-05-05T19:47:48.209Z,19.98
2023-05-05T19:50:53.059Z,17.27
2023-05-05T19:53:59.382Z,20.05
2023-05-05T19:57:03.613Z,14.00
2023-05-05T20:00:10.468Z,20.80
2023-05-05T20:03:15.482Z,19.00
2023-05-05T20:06:20.655Z,21.40
2023-05-05T20:09:25.322Z,21.35
2023-05-05T20:12:29.496Z,14.88
2023-05-05T20:15:33.811Z,20.23
2023-05-05T20:18:38.939Z,14.70
2023-05-05T20:21:43.229Z,19.63
2023-05-05T20:24:48.160Z,20.85
2023-05-05T20:27:52.331Z,15.85
2023-05-05T20:30:56.552Z,22.15
2023-05-05T20:34:02.399Z,16.67
2023-05-05T20:37:06.999Z,18.25
2023-05-05T20:40:12.746Z,22.40
2023-05-05T20:43:17.734Z,14.02
2023-05-05T20:46:22.298Z,17.27
2023-05-05T20:49:26.968Z,16.27
2023-05-05T20:52:35.917Z,20.35
2023-05-05T20:55:40.623Z,20.83
2023-05-05T20:58:44.880Z,18.15
2023-05-05T21:01:49.895Z,25.42
2023-05-05T21:04:54.693Z,26.27
2023-05-05T21:08:00.850Z,19.05
2023-05-05T21:11:10.423Z,16.98
2023-05-05T21:14:14.743Z,24.50
2023-05-05T21:17:18.905Z,22.48
2023-05-05T21:20:23.642Z,24.33
2023-05-05T21:23:28.344Z,16.50
2023-05-05T21:26:32.897Z,20.10
2023-05-05T21:29:39.783Z,18.77
2023-05-05T21:32:44.632Z,28.50
2023-05-05T21:35:49.379Z,16.98
2023-05-05T21:38:58.370Z,24.05
2023-05-05T21:42:03.866Z,18.70
2023-05-05T21:45:09.176Z,23.65
2023-05-05T21:48:13.501Z,28.08
2023-05-05T21:51:19.290Z,20.52
2023-05-05T21:54:23.583Z,18.85
2023-05-05T21:57:28.263Z,21.48
2023-05-05T22:00:32.986Z,22.90
2023-05-05T22:03:37.248Z,25.05
2023-05-05T22:06:41.915Z,22.02
2023-05-05T22:09:47.110Z,26.85
2023-05-05T22:12:52.023Z,16.77
2023-05-05T22:15:56.443Z,23.85
2023-05-05T22:19:00.897Z,19.88
2023-05-05T22:22:05.474Z,25.23
2023-05-05T22:25:10.456Z,22.65
2023-05-05T22:28:15.586Z,18.75
2023-05-05T22:31:19.864Z,23.83
2023-05-05T22:34:25.811Z,23.27
2023-05-05T22:37:29.987Z,20.23
2023-05-05T22:40:35.085Z,19.23
2023-05-05T22:43:39.539Z,16.25
2023-05-05T22:49:48.675Z,23.27
2023-05-05T22:52:53.225Z,21.92
2023-05-05T22:55:58.488Z,21.05
2023-05-05T22:59:04.124Z,25.48
2023-05-05T23:02:08.363Z,22.25
2023-05-05T23:05:13.014Z,19.23
2023-05-05T23:08:17.520Z,20.42
2023-05-05T23:11:22.048Z,20.65
2023-05-05T23:14:26.253Z,24.20
2023-05-05T23:17:30.810Z,25.60
2023-05-05T23:20:35.527Z,20.60
2023-05-05T23:23:39.765Z,23.70
2023-05-05T23:26:43.941Z,27.27
2023-05-05T23:29:51.061Z,24.40
2023-05-05T23:32:57.065Z,22.92
2023-05-05T23:36:01.720Z,21.83
2023-05-05T23:39:06.290Z,27.65
2023-05-05T23:42:10.764Z,30.63
2023-05-05T23:45:16.404Z,23.75
2023-05-05T23:48:21.973Z,21.10
2023-05-05T23:51:27.656Z,23.30
2023-05-05T23:54:32.136Z,23.85
2023-05-05T23:57:37.195Z,19.23
